createdAt,value
2023-03-21T00:01:27.225Z,96474.00
2023-03-21T00:05:31.062Z,96470.00
2023-03-21T00:09:38.463Z,96470.00
2023-03-21T00:13:47.233Z,96469.00
2023-03-21T00:18:03.555Z,96470.00
2023-03-21T00:22:09.266Z,96460.00
2023-03-21T00:26:13.524Z,96460.00
2023-03-21T00:30:18.454Z,96455.00
2023-03-21T00:34:31.737Z,96442.00
2023-03-21T00:38:44.584Z,96450.00
2023-03-21T00:42:47.622Z,96448.00
2023-03-21T00:47:06.297Z,96444.00
2023-03-21T00:51:15.652Z,96438.00
2023-03-21T00:55:20.226Z,96432.00
2023-03-21T00:59:23.641Z,96431.00
2023-03-21T01:03:29.069Z,96428.00
2023-03-21T01:07:33.791Z,96428.00
2023-03-21T01:11:36.853Z,96426.00
2023-03-21T01:15:45.213Z,96425.00
2023-03-21T01:19:52.532Z,96421.00
2023-03-21T01:23:57.743Z,96424.00
2023-03-21T01:28:08.731Z,96428.00
2023-03-21T01:32:11.754Z,96423.00
2023-03-21T01:36:34.238Z,96424.00
2023-03-21T01:40:38.128Z,96419.00
2023-03-21T01:44:55.388Z,96419.00
2023-03-21T01:49:04.210Z,96418.00
2023-03-21T01:53:08.705Z,96419.00
2023-03-21T01:57:25.867Z,96421.00
2023-03-21T02:01:34.799Z,96409.00
2023-03-21T02:05:49.342Z,96415.00
2023-03-21T02:09:55.342Z,96419.00
2023-03-21T02:14:06.209Z,96407.00
2023-03-21T02:18:18.393Z,96396.00
2023-03-21T02:22:41.462Z,96397.00
2023-03-21T02:27:06.639Z,96399.00
2023-03-21T02:31:24.643Z,96397.00
2023-03-21T02:35:52.520Z,96394.00
2023-03-21T02:40:12.364Z,96392.00
2023-03-21T02:44:22.377Z,96389.00
2023-03-21T02:48:38.405Z,96384.00
2023-03-21T02:52:56.209Z,96387.00
2023-03-21T02:57:06.512Z,96386.00
2023-03-21T03:01:12.028Z,96389.00
2023-03-21T03:05:24.767Z,96392.00
2023-03-21T03:09:38.573Z,96394.00
2023-03-21T03:13:58.203Z,96391.00
2023-03-21T03:18:15.477Z,96384.00
2023-03-21T03:22:26.562Z,96383.00
2023-03-21T03:26:37.611Z,96386.00
2023-03-21T03:30:54.277Z,96391.00
2023-03-21T03:35:07.719Z,96388.00
2023-03-21T03:39:13.062Z,96389.00
2023-03-21T03:43:19.286Z,96391.00
2023-03-21T03:47:37.691Z,96387.00
2023-03-21T03:51:53.015Z,96389.00
2023-03-21T03:55:58.584Z,96382.00
2023-03-21T04:00:04.464Z,96381.00
2023-03-21T04:04:13.534Z,96372.00
2023-03-21T04:08:19.555Z,96377.00
2023-03-21T04:12:22.940Z,96375.00
2023-03-21T04:16:26.167Z,96376.00
2023-03-21T04:20:36.910Z,96376.00
2023-03-21T04:24:42.516Z,96377.00
2023-03-21T04:28:53.344Z,96378.00
2023-03-21T04:32:57.045Z,96375.00
2023-03-21T04:37:12.930Z,96377.00
2023-03-21T04:41:24.911Z,96376.00
2023-03-21T04:45:28.428Z,96389.00
2023-03-21T04:49:31.685Z,96382.00
2023-03-21T04:53:38.569Z,96378.00
2023-03-21T04:57:43.605Z,96379.00
2023-03-21T05:01:50.162Z,96376.00
2023-03-21T05:05:53.221Z,96375.00
2023-03-21T05:10:02.456Z,96375.00
2023-03-21T05:14:06.757Z,96373.00
2023-03-21T05:18:12.176Z,96372.00
2023-03-21T05:22:21.068Z,96376.00
2023-03-21T05:26:25.936Z,96384.00
2023-03-21T05:30:35.519Z,96370.00
2023-03-21T05:34:40.329Z,96379.00
2023-03-21T05:38:46.234Z,96373.00
2023-03-21T05:42:50.723Z,96386.00
2023-03-21T05:46:54.990Z,96377.00
2023-03-21T05:50:58.312Z,96382.00
2023-03-21T05:55:04.609Z,96390.00
2023-03-21T05:59:09.309Z,96392.00
2023-03-21T06:03:15.482Z,96392.00
2023-03-21T06:07:32.303Z,96388.00
2023-03-21T06:11:37.188Z,96391.00
2023-03-21T06:15:43.948Z,96404.00
2023-03-21T06:19:48.951Z,96405.00
2023-03-21T06:23:55.756Z,96405.00
2023-03-21T06:27:59.115Z,96409.00
2023-03-21T06:32:07.564Z,96402.00
2023-03-21T06:36:11.755Z,96400.00
2023-03-21T06:40:21.364Z,96412.00
2023-03-21T06:44:32.404Z,96415.00
2023-03-21T06:48:37.625Z,96409.00
2023-03-21T06:52:40.672Z,96413.00
2023-03-21T06:56:43.755Z,96413.00
2023-03-21T07:00:46.804Z,96419.00
2023-03-21T07:04:51.720Z,96428.00
2023-03-21T07:08:58.178Z,96434.00
2023-03-21T07:13:04.447Z,96426.00
2023-03-21T07:17:11.293Z,96426.00
2023-03-21T07:21:15.723Z,96418.00
2023-03-21T07:25:24.597Z,96427.00
2023-03-21T07:29:30.027Z,96424.00
2023-03-21T07:33:36.866Z,96422.00
2023-03-21T07:37:41.961Z,96419.00
2023-03-21T07:41:46.760Z,96421.00
2023-03-21T07:45:49.816Z,96416.00
2023-03-21T07:49:52.926Z,96416.00
2023-03-21T07:53:57.373Z,96416.00
2023-03-21T07:58:00.534Z,96418.00
2023-03-21T08:02:03.621Z,96418.00
2023-03-21T08:06:10.688Z,96415.00
2023-03-21T08:10:17.040Z,96418.00
2023-03-21T08:14:20.089Z,96417.00
2023-03-21T08:18:23.141Z,96422.00
2023-03-21T08:22:26.387Z,96425.00
2023-03-21T08:26:34.137Z,96422.00
2023-03-21T08:30:39.300Z,96422.00
2023-03-21T08:34:43.639Z,96417.00
2023-03-21T08:38:56.975Z,96414.00
2023-03-21T08:43:07.609Z,96413.00
2023-03-21T08:47:12.781Z,96409.00
2023-03-21T08:51:16.927Z,96416.00
2023-03-21T08:55:21.184Z,96415.00
2023-03-21T08:59:25.590Z,96418.00
2023-03-21T09:03:32.687Z,96408.00
2023-03-21T09:07:39.966Z,96406.00
2023-03-21T09:11:43.749Z,96409.00
2023-03-21T09:15:48.423Z,96401.00
2023-03-21T09:19:53.475Z,96406.00
2023-03-21T09:23:59.452Z,96400.00
2023-03-21T09:28:05.299Z,96395.00
2023-03-21T09:32:10.089Z,96401.00
2023-03-21T09:36:14.613Z,96393.00
2023-03-21T09:40:21.450Z,96401.00
2023-03-21T09:44:33.037Z,96402.00
2023-03-21T09:48:56.112Z,96406.00
2023-03-21T09:53:01.904Z,96393.00
2023-03-21T09:57:20.375Z,96397.00
2023-03-21T10:01:33.112Z,96395.00
2023-03-21T10:05:47.040Z,96393.00
2023-03-21T10:09:53.554Z,96385.00
2023-03-21T10:14:04.783Z,96383.00
2023-03-21T10:18:09.321Z,96387.00
2023-03-21T10:22:13.898Z,96388.00
2023-03-21T10:26:20.335Z,96378.00
2023-03-21T10:30:36.628Z,96375.00
2023-03-21T10:34:43.809Z,96375.00
2023-03-21T10:38:50.145Z,96372.00
2023-03-21T10:42:56.412Z,96367.00
2023-03-21T10:47:04.645Z,96367.00
2023-03-21T10:51:10.320Z,96362.00
2023-03-21T10:55:25.310Z,96351.00
2023-03-21T10:59:35.917Z,96356.00
2023-03-21T11:03:45.163Z,96358.00
2023-03-21T11:07:56.931Z,96352.00
2023-03-21T11:12:11.097Z,96357.00
2023-03-21T11:16:24.524Z,96347.00
2023-03-21T11:20:30.875Z,96338.00
2023-03-21T11:24:35.322Z,96339.00
2023-03-21T11:28:45.031Z,96333.00
2023-03-21T11:32:53.376Z,96326.00
2023-03-21T11:37:04.077Z,96323.00
2023-03-21T11:41:08.215Z,96317.00
2023-03-21T11:45:17.525Z,96309.00
2023-03-21T11:49:25.515Z,96308.00
2023-03-21T11:53:40.661Z,96301.00
2023-03-21T11:57:50.300Z,96294.00
2023-03-21T12:02:55.473Z,96276.00
2023-03-21T12:07:04.054Z,96278.00
2023-03-21T12:11:16.721Z,96272.00
2023-03-21T12:15:25.333Z,96257.00
2023-03-21T12:19:56.350Z,96257.00
2023-03-21T12:24:10.458Z,96255.00
2023-03-21T12:28:33.292Z,96246.00
2023-03-21T12:32:55.868Z,96237.00
2023-03-21T12:37:13.466Z,96242.00
2023-03-21T12:41:26.688Z,96248.00
2023-03-21T12:45:45.870Z,96232.00
2023-03-21T12:50:01.571Z,96233.00
2023-03-21T12:54:19.252Z,96219.00
2023-03-21T12:58:25.867Z,96219.00
2023-03-21T13:02:32.554Z,96210.00
2023-03-21T13:06:39.161Z,96219.00
2023-03-21T13:10:46.673Z,96213.00
2023-03-21T13:15:03.529Z,96212.00
2023-03-21T13:19:17.164Z,96206.00
2023-03-21T13:23:22.717Z,96198.00
2023-03-21T13:27:32.661Z,96204.00
2023-03-21T13:31:51.075Z,96196.00
2023-03-21T13:36:05.700Z,96189.00
2023-03-21T13:40:22.642Z,96180.00
2023-03-21T13:44:34.357Z,96176.00
2023-03-21T13:48:58.218Z,96165.00
2023-03-21T13:53:31.780Z,96164.00
2023-03-21T13:57:40.682Z,96160.00
2023-03-21T14:02:06.276Z,96158.00
2023-03-21T14:06:16.774Z,96160.00
2023-03-21T14:10:26.283Z,96158.00
2023-03-21T14:14:36.660Z,96157.00
2023-03-21T14:18:54.067Z,96149.00
2023-03-21T14:23:01.149Z,96154.00
2023-03-21T14:27:10.033Z,96152.00
2023-03-21T14:31:17.186Z,96150.00
2023-03-21T14:35:22.651Z,96130.00
2023-03-21T14:39:32.962Z,96132.00
2023-03-21T14:43:42.040Z,96131.00
2023-03-21T14:47:56.243Z,96140.00
2023-03-21T14:52:07.037Z,96122.00
2023-03-21T14:56:21.069Z,96127.00
2023-03-21T15:00:27.498Z,96130.00
2023-03-21T15:04:32.074Z,96127.00
2023-03-21T15:08:37.088Z,96124.00
2023-03-21T15:12:50.513Z,96127.00
2023-03-21T15:16:56.071Z,96121.00
2023-03-21T15:21:03.923Z,96119.00
2023-03-21T15:25:14.983Z,96121.00
2023-03-21T15:29:19.579Z,96123.00
2023-03-21T15:33:27.053Z,96124.00
2023-03-21T15:37:38.211Z,96113.00
2023-03-21T15:41:43.374Z,96119.00
2023-03-21T15:45:50.381Z,96112.00
2023-03-21T15:49:55.823Z,96108.00
2023-03-21T15:53:59.686Z,96112.00
2023-03-21T15:58:17.112Z,96106.00
2023-03-21T16:02:28.583Z,96108.00
2023-03-21T16:06:34.248Z,96111.00
2023-03-21T16:10:41.449Z,96105.00
2023-03-21T16:14:48.976Z,96111.00
2023-03-21T16:18:57.976Z,96115.00
2023-03-21T16:23:01.325Z,96108.00
2023-03-21T16:27:04.416Z,96108.00
2023-03-21T16:31:14.866Z,96108.00
2023-03-21T16:35:18.829Z,96110.00
2023-03-21T16:39:27.190Z,96118.00
2023-03-21T16:43:32.955Z,96115.00
2023-03-21T16:47:40.259Z,96124.00
2023-03-21T16:51:45.297Z,96124.00
2023-03-21T16:55:48.802Z,96127.00
2023-03-21T16:59:52.434Z,96123.00
2023-03-21T17:03:57.898Z,96120.00
2023-03-21T17:08:06.682Z,96126.00
2023-03-21T17:12:15.761Z,96130.00
2023-03-21T17:16:26.542Z,96131.00
2023-03-21T17:20:34.980Z,96126.00
2023-03-21T17:24:39.054Z,96137.00
2023-03-21T17:28:46.849Z,96134.00
2023-03-21T17:32:50.828Z,96145.00
2023-03-21T17:37:00.086Z,96146.00
2023-03-21T17:41:07.119Z,96141.00
2023-03-21T17:45:11.065Z,96141.00
2023-03-21T17:49:17.025Z,96137.00
2023-03-21T17:53:25.319Z,96143.00
2023-03-21T17:57:31.281Z,96145.00
2023-03-21T18:01:37.448Z,96152.00
2023-03-21T18:05:41.095Z,96143.00
2023-03-21T18:09:45.735Z,96147.00
2023-03-21T18:13:51.443Z,96145.00
2023-03-21T18:17:55.364Z,96147.00
2023-03-21T18:21:58.379Z,96147.00
2023-03-21T18:26:05.166Z,96157.00
2023-03-21T18:30:32.767Z,96147.00
2023-03-21T18:34:35.479Z,96157.00
2023-03-21T18:38:38.548Z,96152.00
2023-03-21T18:43:39.476Z,96152.00
2023-03-21T18:47:10.821Z,96148.00
2023-03-21T18:51:15.864Z,96153.00
2023-03-21T18:55:25.638Z,96156.00
2023-03-21T18:59:37.424Z,96146.00
2023-03-21T19:03:43.061Z,96157.00
2023-03-21T19:07:48.082Z,96159.00
2023-03-21T19:11:52.264Z,96160.00
2023-03-21T19:15:58.221Z,96163.00
2023-03-21T19:20:03.046Z,96164.00
2023-03-21T19:24:26.934Z,96174.00
2023-03-21T19:28:31.879Z,96168.00
2023-03-21T19:32:36.743Z,96172.00
2023-03-21T19:36:45.682Z,96169.00
2023-03-21T19:40:52.298Z,96163.00
2023-03-21T19:44:55.311Z,96166.00
2023-03-21T19:49:04.087Z,96159.00
2023-03-21T19:53:07.167Z,96145.00
2023-03-21T19:57:10.470Z,96151.00
2023-03-21T20:01:13.609Z,96142.00
2023-03-21T20:05:27.826Z,96146.00
2023-03-21T20:09:50.540Z,96158.00
2023-03-21T20:13:54.512Z,96163.00
2023-03-21T20:17:57.578Z,96155.00
2023-03-21T20:22:02.971Z,96159.00
2023-03-21T20:26:09.992Z,96155.00
2023-03-21T20:30:19.859Z,96159.00
2023-03-21T20:34:23.033Z,96153.00
2023-03-21T20:38:27.508Z,96161.00
2023-03-21T20:42:31.523Z,96166.00
2023-03-21T20:46:38.600Z,96162.00
2023-03-21T20:50:42.390Z,96148.00
2023-03-21T20:54:47.734Z,96146.00
2023-03-21T20:59:04.853Z,96157.00
2023-03-21T21:03:15.968Z,96152.00
2023-03-21T21:07:21.113Z,96155.00
2023-03-21T21:15:52.033Z,96166.00
2023-03-21T21:19:55.465Z,96160.00
2023-03-21T21:24:00.224Z,96165.00
2023-03-21T21:28:11.885Z,96161.00
2023-03-21T21:32:16.900Z,96154.00
2023-03-21T21:36:21.117Z,96157.00
2023-03-21T21:40:26.056Z,96153.00
2023-03-21T21:44:32.794Z,96145.00
2023-03-21T21:48:36.459Z,96155.00
2023-03-21T21:52:44.034Z,96155.00
2023-03-21T21:56:48.739Z,96149.00
2023-03-21T22:00:59.915Z,96137.00
2023-03-21T22:05:02.954Z,96138.00
2023-03-21T22:09:07.086Z,96130.00
2023-03-21T22:13:10.486Z,96140.00
2023-03-21T22:17:19.349Z,96135.00
2023-03-21T22:21:22.500Z,96138.00
2023-03-21T22:25:25.725Z,96128.00
2023-03-21T22:29:29.757Z,96129.00
2023-03-21T22:33:34.576Z,96137.00
2023-03-21T22:37:39.644Z,96139.00
2023-03-21T22:41:42.990Z,96134.00
2023-03-21T22:45:46.911Z,96139.00
2023-03-21T22:49:51.762Z,96137.00
2023-03-21T22:53:55.320Z,96147.00
2023-03-21T22:57:58.472Z,96151.00
2023-03-21T23:02:03.699Z,96149.00
2023-03-21T23:06:09.051Z,96138.00
2023-03-21T23:10:13.203Z,96137.00
2023-03-21T23:14:16.988Z,96130.00
2023-03-21T23:18:22.674Z,96122.00
2023-03-21T23:22:29.179Z,96129.00
2023-03-21T23:26:33.009Z,96137.00
2023-03-21T23:30:40.143Z,96137.00
2023-03-21T23:34:43.444Z,96139.00
2023-03-21T23:38:50.948Z,96137.00
2023-03-21T23:42:54.053Z,96139.00
2023-03-21T23:46:59.323Z,96145.00
2023-03-21T23:51:04.603Z,96144.00
2023-03-21T23:55:09.974Z,96132.00
2023-03-21T23:59:15.633Z,96137.00
